sensor_id;sensor_type;location;lat;lon;timestamp;pressure;altitude;pressure_sealevel;temperature;humidity
60019;BME280;45870;42.528;26.740;2023-04-16T00:02:06;99271.59;;;19.94;52.17
60019;BME280;45870;42.528;26.740;2023-04-16T00:04:32;99181.06;;;18.90;53.38
60019;BME280;45870;42.528;26.740;2023-04-16T00:06:58;99327.38;;;20.25;52.58
60019;BME280;45870;42.528;26.740;2023-04-16T00:09:23;99324.75;;;19.93;53.73
60019;BME280;45870;42.528;26.740;2023-04-16T00:11:49;99342.72;;;21.12;50.35
60019;BME280;45870;42.528;26.740;2023-04-16T00:14:14;99307.63;;;20.86;50.33
60019;BME280;45870;42.528;26.740;2023-04-16T00:16:40;99339.13;;;21.86;47.78
60019;BME280;45870;42.528;26.740;2023-04-16T00:19:06;99329.72;;;20.18;52.21
60019;BME280;45870;42.528;26.740;2023-04-16T00:21:31;99318.13;;;20.21;52.79
60019;BME280;45870;42.528;26.740;2023-04-16T00:23:57;99328.28;;;20.07;53.13
60019;BME280;45870;42.528;26.740;2023-04-16T00:26:23;99305.50;;;19.38;54.67
60019;BME280;45870;42.528;26.740;2023-04-16T00:28:48;99333.44;;;19.68;54.76
60019;BME280;45870;42.528;26.740;2023-04-16T00:31:14;99324.41;;;20.49;52.02
60019;BME280;45870;42.528;26.740;2023-04-16T00:33:40;99336.72;;;21.10;50.34
60019;BME280;45870;42.528;26.740;2023-04-16T00:36:06;99336.00;;;21.71;48.97
60019;BME280;45870;42.528;26.740;2023-04-16T00:38:31;99337.72;;;21.36;49.45
60019;BME280;45870;42.528;26.740;2023-04-16T00:40:57;99326.06;;;20.72;51.66
60019;BME280;45870;42.528;26.740;2023-04-16T00:43:24;99339.25;;;19.15;55.93
60019;BME280;45870;42.528;26.740;2023-04-16T00:45:52;99344.41;;;19.95;53.89
60019;BME280;45870;42.528;26.740;2023-04-16T00:48:19;99341.59;;;21.88;48.45
60019;BME280;45870;42.528;26.740;2023-04-16T00:50:45;99336.66;;;22.07;47.25
60019;BME280;45870;42.528;26.740;2023-04-16T00:53:12;99348.50;;;22.16;47.09
60019;BME280;45870;42.528;26.740;2023-04-16T00:55:38;99335.66;;;22.60;46.12
60019;BME280;45870;42.528;26.740;2023-04-16T00:58:05;99335.06;;;22.97;45.14
60019;BME280;45870;42.528;26.740;2023-04-16T01:00:31;99332.44;;;23.26;44.07
60019;BME280;45870;42.528;26.740;2023-04-16T01:02:58;99308.97;;;23.12;44.12
60019;BME280;45870;42.528;26.740;2023-04-16T01:05:24;99332.75;;;21.69;47.68
60019;BME280;45870;42.528;26.740;2023-04-16T01:07:51;99288.50;;;22.18;45.66
60019;BME280;45870;42.528;26.740;2023-04-16T01:10:16;99334.88;;;20.47;51.72
60019;BME280;45870;42.528;26.740;2023-04-16T01:12:42;99333.19;;;22.32;46.81
60019;BME280;45870;42.528;26.740;2023-04-16T01:15:08;99326.56;;;22.33;45.95
60019;BME280;45870;42.528;26.740;2023-04-16T01:17:35;99325.16;;;21.35;49.19
60019;BME280;45870;42.528;26.740;2023-04-16T01:20:01;99320.91;;;20.71;50.72
60019;BME280;45870;42.528;26.740;2023-04-16T01:22:27;99311.94;;;19.88;53.10
60019;BME280;45870;42.528;26.740;2023-04-16T01:24:53;99332.75;;;20.03;52.89
60019;BME280;45870;42.528;26.740;2023-04-16T01:27:18;99330.69;;;22.05;46.96
60019;BME280;45870;42.528;26.740;2023-04-16T01:29:44;99328.84;;;21.92;47.15
60019;BME280;45870;42.528;26.740;2023-04-16T01:32:10;99322.72;;;21.95;46.38
60019;BME280;45870;42.528;26.740;2023-04-16T01:34:35;99323.78;;;21.55;47.62
60019;BME280;45870;42.528;26.740;2023-04-16T01:37:02;99268.66;;;19.90;51.84
60019;BME280;45870;42.528;26.740;2023-04-16T01:39:31;99318.59;;;19.09;55.19
60019;BME280;45870;42.528;26.740;2023-04-16T01:41:57;99316.25;;;18.65;57.26
60019;BME280;45870;42.528;26.740;2023-04-16T01:44:22;99308.53;;;19.05;56.29
60019;BME280;45870;42.528;26.740;2023-04-16T01:46:48;99313.44;;;18.52;57.77
60019;BME280;45870;42.528;26.740;2023-04-16T01:49:14;99305.97;;;18.76;57.13
60019;BME280;45870;42.528;26.740;2023-04-16T01:51:40;99321.28;;;18.77;56.74
60019;BME280;45870;42.528;26.740;2023-04-16T01:54:06;99322.25;;;19.18;55.89
60019;BME280;45870;42.528;26.740;2023-04-16T01:56:32;99317.91;;;19.50;54.53
60019;BME280;45870;42.528;26.740;2023-04-16T01:58:58;99313.53;;;19.16;55.50
60019;BME280;45870;42.528;26.740;2023-04-16T02:01:23;99296.44;;;19.84;53.62
60019;BME280;45870;42.528;26.740;2023-04-16T02:03:50;99309.06;;;21.20;50.13
60019;BME280;45870;42.528;26.740;2023-04-16T02:06:16;99286.13;;;20.58;50.44
60019;BME280;45870;42.528;26.740;2023-04-16T02:08:41;99256.47;;;19.42;53.13
60019;BME280;45870;42.528;26.740;2023-04-16T02:11:08;99305.75;;;20.73;51.03
60019;BME280;45870;42.528;26.740;2023-04-16T02:13:34;99302.91;;;21.01;49.85
60019;BME280;45870;42.528;26.740;2023-04-16T02:16:00;99301.16;;;20.82;50.01
60019;BME280;45870;42.528;26.740;2023-04-16T02:18:26;99304.44;;;20.21;52.16
60019;BME280;45870;42.528;26.740;2023-04-16T02:20:52;99294.19;;;19.59;53.80
60019;BME280;45870;42.528;26.740;2023-04-16T02:23:18;99290.66;;;18.37;58.50
60019;BME280;45870;42.528;26.740;2023-04-16T02:25:45;99281.97;;;18.35;58.16
60019;BME280;45870;42.528;26.740;2023-04-16T02:28:13;99285.44;;;19.43;55.68
60019;BME280;45870;42.528;26.740;2023-04-16T02:30:39;99295.03;;;18.38;58.37
60019;BME280;45870;42.528;26.740;2023-04-16T02:33:07;99296.72;;;18.34;58.78
60019;BME280;45870;42.528;26.740;2023-04-16T02:35:33;99295.38;;;19.07;57.07
60019;BME280;45870;42.528;26.740;2023-04-16T02:37:59;99280.72;;;19.16;56.08
60019;BME280;45870;42.528;26.740;2023-04-16T02:40:25;99289.09;;;19.06;56.07
60019;BME280;45870;42.528;26.740;2023-04-16T02:42:52;99275.44;;;18.87;56.71
60019;BME280;45870;42.528;26.740;2023-04-16T02:45:19;99292.69;;;18.69;57.62
60019;BME280;45870;42.528;26.740;2023-04-16T02:47:45;99261.44;;;19.54;54.84
60019;BME280;45870;42.528;26.740;2023-04-16T02:50:11;99275.31;;;19.43;55.14
60019;BME280;45870;42.528;26.740;2023-04-16T02:52:37;99291.84;;;18.31;58.58
60019;BME280;45870;42.528;26.740;2023-04-16T02:55:02;99291.63;;;18.46;58.01
60019;BME280;45870;42.528;26.740;2023-04-16T02:57:28;99295.91;;;19.22;55.98
60019;BME280;45870;42.528;26.740;2023-04-16T02:59:54;99307.16;;;19.67;54.17
60019;BME280;45870;42.528;26.740;2023-04-16T03:02:20;99291.28;;;19.36;55.27
60019;BME280;45870;42.528;26.740;2023-04-16T03:04:45;99299.06;;;19.29;55.35
60019;BME280;45870;42.528;26.740;2023-04-16T03:07:11;99298.56;;;19.60;54.37
60019;BME280;45870;42.528;26.740;2023-04-16T03:09:40;99299.34;;;18.82;57.38
60019;BME280;45870;42.528;26.740;2023-04-16T03:12:05;99292.22;;;18.43;58.62
60019;BME280;45870;42.528;26.740;2023-04-16T03:14:31;99300.41;;;19.00;57.30
60019;BME280;45870;42.528;26.740;2023-04-16T03:16:57;99298.84;;;18.93;57.24
60019;BME280;45870;42.528;26.740;2023-04-16T03:19:23;99279.00;;;19.20;55.61
60019;BME280;45870;42.528;26.740;2023-04-16T03:21:48;99302.56;;;19.03;57.66
60019;BME280;45870;42.528;26.740;2023-04-16T03:24:14;99307.50;;;20.33;53.29
60019;BME280;45870;42.528;26.740;2023-04-16T03:26:40;99290.09;;;21.32;50.14
60019;BME280;45870;42.528;26.740;2023-04-16T03:29:05;99301.47;;;20.45;52.40
60019;BME280;45870;42.528;26.740;2023-04-16T03:31:31;99296.91;;;19.45;55.11
60019;BME280;45870;42.528;26.740;2023-04-16T03:33:57;99312.16;;;19.92;54.53
60019;BME280;45870;42.528;26.740;2023-04-16T03:36:22;99306.72;;;20.55;52.09
60019;BME280;45870;42.528;26.740;2023-04-16T03:38:48;99325.84;;;20.47;52.71
60019;BME280;45870;42.528;26.740;2023-04-16T03:41:14;99310.63;;;20.13;53.42
60019;BME280;45870;42.528;26.740;2023-04-16T03:43:40;99312.47;;;21.03;50.87
60019;BME280;45870;42.528;26.740;2023-04-16T03:46:05;99303.41;;;20.17;53.43
60019;BME280;45870;42.528;26.740;2023-04-16T03:48:31;99320.38;;;20.19;53.03
60019;BME280;45870;42.528;26.740;2023-04-16T03:50:57;99325.56;;;20.34;52.63
60019;BME280;45870;42.528;26.740;2023-04-16T03:53:23;99288.19;;;20.38;52.12
60019;BME280;45870;42.528;26.740;2023-04-16T03:55:50;99335.19;;;20.46;52.29
60019;BME280;45870;42.528;26.740;2023-04-16T03:58:16;99328.94;;;21.03;50.74
60019;BME280;45870;42.528;26.740;2023-04-16T04:00:41;99296.53;;;20.06;52.93
60019;BME280;45870;42.528;26.740;2023-04-16T04:03:08;99326.53;;;21.24;50.46
60019;BME280;45870;42.528;26.740;2023-04-16T04:05:38;99321.00;;;20.30;52.32
60019;BME280;45870;42.528;26.740;2023-04-16T04:08:04;99339.13;;;21.25;50.33
60019;BME280;45870;42.528;26.740;2023-04-16T04:10:31;99339.25;;;21.81;48.68
60019;BME280;45870;42.528;26.740;2023-04-16T04:12:57;99339.41;;;21.99;48.30
60019;BME280;45870;42.528;26.740;2023-04-16T04:15:23;99342.63;;;21.39;49.64
60019;BME280;45870;42.528;26.740;2023-04-16T04:17:48;99317.00;;;21.52;48.57
60019;BME280;45870;42.528;26.740;2023-04-16T04:20:14;99338.06;;;21.12;50.43
60019;BME280;45870;42.528;26.740;2023-04-16T04:22:40;99321.06;;;20.88;50.75
60019;BME280;45870;42.528;26.740;2023-04-16T04:25:08;99331.03;;;22.21;47.72
60019;BME280;45870;42.528;26.740;2023-04-16T04:27:34;99330.31;;;22.63;46.59
60019;BME280;45870;42.528;26.740;2023-04-16T04:30:00;99299.19;;;22.20;46.99
60019;BME280;45870;42.528;26.740;2023-04-16T04:32:25;99328.91;;;22.92;46.11
60019;BME280;45870;42.528;26.740;2023-04-16T04:34:51;99332.00;;;22.90;46.20
60019;BME280;45870;42.528;26.740;2023-04-16T04:37:17;99338.63;;;22.89;45.91
60019;BME280;45870;42.528;26.740;2023-04-16T04:39:42;99346.66;;;23.71;44.52
60019;BME280;45870;42.528;26.740;2023-04-16T04:42:08;99349.06;;;23.73;44.02
60019;BME280;45870;42.528;26.740;2023-04-16T04:44:34;99357.09;;;23.95;43.46
60019;BME280;45870;42.528;26.740;2023-04-16T04:46:59;99294.75;;;22.67;45.90
60019;BME280;45870;42.528;26.740;2023-04-16T04:49:25;99352.78;;;23.68;44.43
60019;BME280;45870;42.528;26.740;2023-04-16T04:51:51;99361.72;;;23.65;44.50
60019;BME280;45870;42.528;26.740;2023-04-16T04:54:16;99352.31;;;22.63;47.05
60019;BME280;45870;42.528;26.740;2023-04-16T04:56:42;99352.13;;;22.42;48.14
60019;BME280;45870;42.528;26.740;2023-04-16T04:59:10;99354.59;;;21.74;49.74
60019;BME280;45870;42.528;26.740;2023-04-16T05:01:37;99353.25;;;21.18;51.49
60019;BME280;45870;42.528;26.740;2023-04-16T05:04:03;99342.16;;;21.23;51.14
60019;BME280;45870;42.528;26.740;2023-04-16T05:06:29;99354.06;;;21.19;52.11
60019;BME280;45870;42.528;26.740;2023-04-16T05:08:55;99350.16;;;21.64;50.38
60019;BME280;45870;42.528;26.740;2023-04-16T05:11:21;99309.59;;;22.49;47.70
60019;BME280;45870;42.528;26.740;2023-04-16T05:13:47;99358.78;;;22.50;48.02
60019;BME280;45870;42.528;26.740;2023-04-16T05:16:12;99347.06;;;22.27;48.86
60019;BME280;45870;42.528;26.740;2023-04-16T05:18:38;99319.56;;;21.79;49.27
60019;BME280;45870;42.528;26.740;2023-04-16T05:21:04;99359.28;;;22.61;47.97
60019;BME280;45870;42.528;26.740;2023-04-16T05:23:30;99352.78;;;23.68;45.72
60019;BME280;45870;42.528;26.740;2023-04-16T05:25:55;99356.78;;;25.05;42.37
60019;BME280;45870;42.528;26.740;2023-04-16T05:28:21;99357.56;;;26.04;40.88
60019;BME280;45870;42.528;26.740;2023-04-16T05:30:47;99361.78;;;26.22;40.60
60019;BME280;45870;42.528;26.740;2023-04-16T05:33:12;99354.09;;;26.80;39.06
60019;BME280;45870;42.528;26.740;2023-04-16T05:35:38;99359.47;;;27.68;37.13
60019;BME280;45870;42.528;26.740;2023-04-16T05:38:04;99325.03;;;27.69;37.29
60019;BME280;45870;42.528;26.740;2023-04-16T05:40:30;99366.59;;;26.50;39.83
60019;BME280;45870;42.528;26.740;2023-04-16T05:42:56;99360.31;;;25.14;42.63
60019;BME280;45870;42.528;26.740;2023-04-16T05:45:21;99358.81;;;25.17;42.35
60019;BME280;45870;42.528;26.740;2023-04-16T05:47:47;99302.63;;;24.30;44.38
60019;BME280;45870;42.528;26.740;2023-04-16T05:50:13;99357.09;;;26.75;40.00
60019;BME280;45870;42.528;26.740;2023-04-16T05:52:39;99326.00;;;27.77;37.67
60019;BME280;45870;42.528;26.740;2023-04-16T05:55:05;99362.19;;;27.96;36.48
60019;BME280;45870;42.528;26.740;2023-04-16T05:57:32;99302.13;;;26.01;39.67
60019;BME280;45870;42.528;26.740;2023-04-16T05:59:57;99356.09;;;27.19;38.73
60019;BME280;45870;42.528;26.740;2023-04-16T06:02:23;99345.78;;;26.92;38.82
60019;BME280;45870;42.528;26.740;2023-04-16T06:04:49;99348.28;;;27.65;37.31
60019;BME280;45870;42.528;26.740;2023-04-16T06:07:15;99350.00;;;26.13;40.61
60019;BME280;45870;42.528;26.740;2023-04-16T06:09:40;99353.13;;;26.24;41.20
60019;BME280;45870;42.528;26.740;2023-04-16T06:12:06;99349.75;;;28.37;35.34
60019;BME280;45870;42.528;26.740;2023-04-16T06:14:32;99343.19;;;26.59;39.82
60019;BME280;45870;42.528;26.740;2023-04-16T06:16:57;99339.00;;;28.04;36.34
60019;BME280;45870;42.528;26.740;2023-04-16T06:19:23;99348.28;;;27.65;36.85
60019;BME280;45870;42.528;26.740;2023-04-16T06:21:49;99349.41;;;27.48;38.52
60019;BME280;45870;42.528;26.740;2023-04-16T06:24:15;99348.25;;;25.19;42.73
60019;BME280;45870;42.528;26.740;2023-04-16T06:26:43;99350.31;;;25.22;42.40
60019;BME280;45870;42.528;26.740;2023-04-16T06:29:08;99332.81;;;25.96;40.71
60019;BME280;45870;42.528;26.740;2023-04-16T06:31:34;99345.47;;;26.69;38.94
60019;BME280;45870;42.528;26.740;2023-04-16T06:34:00;99339.97;;;28.43;35.32
60019;BME280;45870;42.528;26.740;2023-04-16T06:36:25;99340.78;;;27.65;36.39
60019;BME280;45870;42.528;26.740;2023-04-16T06:38:52;99276.66;;;27.39;37.05
60019;BME280;45870;42.528;26.740;2023-04-16T06:41:17;99327.13;;;28.04;36.44
60019;BME280;45870;42.528;26.740;2023-04-16T06:43:43;99333.25;;;27.10;38.33
60019;BME280;45870;42.528;26.740;2023-04-16T06:46:09;99339.06;;;27.61;37.67
60019;BME280;45870;42.528;26.740;2023-04-16T06:48:35;99303.44;;;28.41;35.46
60019;BME280;45870;42.528;26.740;2023-04-16T06:51:01;99355.00;;;30.11;32.83
60019;BME280;45870;42.528;26.740;2023-04-16T06:53:26;99355.91;;;28.97;34.34
60019;BME280;45870;42.528;26.740;2023-04-16T06:55:52;99347.47;;;27.64;37.30
60019;BME280;45870;42.528;26.740;2023-04-16T06:58:18;99359.31;;;26.57;40.22
60019;BME280;45870;42.528;26.740;2023-04-16T07:00:44;99359.22;;;26.29;40.23
60019;BME280;45870;42.528;26.740;2023-04-16T07:03:09;99362.84;;;27.34;37.14
60019;BME280;45870;42.528;26.740;2023-04-16T07:05:35;99362.31;;;28.66;35.39
60019;BME280;45870;42.528;26.740;2023-04-16T07:08:01;99357.75;;;29.08;33.54
60019;BME280;45870;42.528;26.740;2023-04-16T07:10:26;99354.72;;;29.17;33.33
60019;BME280;45870;42.528;26.740;2023-04-16T07:12:52;99333.97;;;28.41;34.61
60019;BME280;45870;42.528;26.740;2023-04-16T07:15:17;99357.69;;;26.93;38.01
60019;BME280;45870;42.528;26.740;2023-04-16T07:17:43;99372.56;;;26.64;38.79
60019;BME280;45870;42.528;26.740;2023-04-16T07:20:09;99369.50;;;26.41;39.08
60019;BME280;45870;42.528;26.740;2023-04-16T07:22:35;99353.97;;;27.01;38.15
60019;BME280;45870;42.528;26.740;2023-04-16T07:25:01;99367.03;;;27.99;36.07
60019;BME280;45870;42.528;26.740;2023-04-16T07:27:26;99356.91;;;27.91;36.67
60019;BME280;45870;42.528;26.740;2023-04-16T07:29:52;99359.25;;;26.17;39.61
60019;BME280;45870;42.528;26.740;2023-04-16T07:32:20;99351.22;;;26.76;38.68
60019;BME280;45870;42.528;26.740;2023-04-16T07:34:45;99354.22;;;26.71;39.70
60019;BME280;45870;42.528;26.740;2023-04-16T07:37:11;99366.25;;;25.58;41.81
60019;BME280;45870;42.528;26.740;2023-04-16T07:39:37;99363.81;;;24.23;44.54
60019;BME280;45870;42.528;26.740;2023-04-16T07:42:02;99372.44;;;23.67;46.23
60019;BME280;45870;42.528;26.740;2023-04-16T07:44:28;99380.09;;;25.16;42.53
60019;BME280;45870;42.528;26.740;2023-04-16T07:46:54;99377.03;;;25.83;41.23
60019;BME280;45870;42.528;26.740;2023-04-16T07:49:20;99375.56;;;25.98;40.83
60019;BME280;45870;42.528;26.740;2023-04-16T07:51:45;99204.31;;;24.25;43.05
60019;BME280;45870;42.528;26.740;2023-04-16T07:54:11;99369.69;;;24.72;44.17
60019;BME280;45870;42.528;26.740;2023-04-16T07:56:37;99369.41;;;23.25;46.40
60019;BME280;45870;42.528;26.740;2023-04-16T07:59:03;99375.22;;;23.07;47.22
60019;BME280;45870;42.528;26.740;2023-04-16T08:01:28;99334.88;;;23.54;45.69
60019;BME280;45870;42.528;26.740;2023-04-16T08:06:29;99399.53;;;22.00;51.05
60019;BME280;45870;42.528;26.740;2023-04-16T08:08:55;99402.94;;;19.72;57.39
60019;BME280;45870;42.528;26.740;2023-04-16T08:11:21;99412.41;;;18.91;58.69
60019;BME280;45870;42.528;26.740;2023-04-16T08:13:48;99364.91;;;19.38;55.79
60019;BME280;45870;42.528;26.740;2023-04-16T08:16:14;99414.91;;;19.43;56.01
60019;BME280;45870;42.528;26.740;2023-04-16T08:18:40;99437.38;;;17.89;60.17
60019;BME280;45870;42.528;26.740;2023-04-16T08:21:06;99426.50;;;17.17;61.73
60019;BME280;45870;42.528;26.740;2023-04-16T08:23:31;99422.28;;;18.44;57.74
60019;BME280;45870;42.528;26.740;2023-04-16T08:25:57;99419.91;;;18.62;57.09
60019;BME280;45870;42.528;26.740;2023-04-16T08:28:23;99420.75;;;17.86;58.70
60019;BME280;45870;42.528;26.740;2023-04-16T08:30:49;99414.09;;;19.75;54.06
60019;BME280;45870;42.528;26.740;2023-04-16T08:33:14;99393.16;;;21.02;50.18
60019;BME280;45870;42.528;26.740;2023-04-16T08:35:40;99381.59;;;20.42;50.89
60019;BME280;45870;42.528;26.740;2023-04-16T08:38:05;99359.50;;;20.74;50.27
60019;BME280;45870;42.528;26.740;2023-04-16T08:40:34;99285.44;;;21.41;47.87
60019;BME280;45870;42.528;26.740;2023-04-16T08:43:05;99332.66;;;22.22;46.59
60019;BME280;45870;42.528;26.740;2023-04-16T08:45:34;99355.34;;;21.66;48.61
60019;BME280;45870;42.528;26.740;2023-04-16T08:48:04;99372.66;;;21.44;51.02
60019;BME280;45870;42.528;26.740;2023-04-16T08:50:32;99371.34;;;21.64;50.74
60019;BME280;45870;42.528;26.740;2023-04-16T08:53:03;99375.06;;;23.46;47.35
60019;BME280;45870;42.528;26.740;2023-04-16T08:55:36;99331.19;;;22.89;48.29
60019;BME280;45870;42.528;26.740;2023-04-16T08:58:10;99369.84;;;22.67;49.24
60019;BME280;45870;42.528;26.740;2023-04-16T09:00:38;99373.13;;;24.69;43.84
60019;BME280;45870;42.528;26.740;2023-04-16T09:03:05;99375.59;;;26.10;41.17
60019;BME280;45870;42.528;26.740;2023-04-16T09:05:32;99343.59;;;28.12;35.90
60019;BME280;45870;42.528;26.740;2023-04-16T09:07:58;99362.44;;;28.54;35.81
60019;BME280;45870;42.528;26.740;2023-04-16T09:10:25;99373.34;;;28.62;35.58
60019;BME280;45870;42.528;26.740;2023-04-16T09:12:54;99367.75;;;27.96;37.43
60019;BME280;45870;42.528;26.740;2023-04-16T09:15:20;99369.16;;;29.22;34.08
60019;BME280;45870;42.528;26.740;2023-04-16T09:17:46;99380.34;;;28.72;34.80
60019;BME280;45870;42.528;26.740;2023-04-16T09:20:13;99376.00;;;28.24;35.47
60019;BME280;45870;42.528;26.740;2023-04-16T09:22:40;99381.34;;;26.54;38.49
60019;BME280;45870;42.528;26.740;2023-04-16T09:25:06;99361.44;;;25.67;40.33
60019;BME280;45870;42.528;26.740;2023-04-16T09:27:32;99369.31;;;22.57;44.71
60019;BME280;45870;42.528;26.740;2023-04-16T09:29:58;99376.88;;;21.95;48.60
60019;BME280;45870;42.528;26.740;2023-04-16T09:32:25;99369.47;;;22.04;49.44
60019;BME280;45870;42.528;26.740;2023-04-16T09:34:56;99350.00;;;21.61;49.52
60019;BME280;45870;42.528;26.740;2023-04-16T09:37:22;99352.78;;;20.80;54.41
60019;BME280;45870;42.528;26.740;2023-04-16T09:39:57;99346.84;;;23.40;46.47
60019;BME280;45870;42.528;26.740;2023-04-16T09:42:24;99331.19;;;23.87;45.79
60019;BME280;45870;42.528;26.740;2023-04-16T09:44:52;99364.59;;;21.70;50.25
60019;BME280;45870;42.528;26.740;2023-04-16T09:47:18;99347.28;;;19.44;58.02
60019;BME280;45870;42.528;26.740;2023-04-16T09:49:44;99348.22;;;21.12;52.71
60019;BME280;45870;42.528;26.740;2023-04-16T09:52:21;99294.38;;;22.34;45.58
60019;BME280;45870;42.528;26.740;2023-04-16T09:54:49;99312.88;;;23.11;44.49
60019;BME280;45870;42.528;26.740;2023-04-16T09:57:23;99360.28;;;23.68;43.90
60019;BME280;45870;42.528;26.740;2023-04-16T09:59:52;99307.34;;;23.83;46.11
60019;BME280;45870;42.528;26.740;2023-04-16T10:02:18;99356.66;;;25.02;42.51
60019;BME280;45870;42.528;26.740;2023-04-16T10:07:11;99368.09;;;25.66;39.32
60019;BME280;45870;42.528;26.740;2023-04-16T10:09:38;99360.50;;;25.63;39.43
60019;BME280;45870;42.528;26.740;2023-04-16T10:12:04;99361.22;;;25.39;41.93
60019;BME280;45870;42.528;26.740;2023-04-16T10:14:31;99361.06;;;25.56;40.90
60019;BME280;45870;42.528;26.740;2023-04-16T10:16:58;99372.38;;;26.32;37.75
60019;BME280;45870;42.528;26.740;2023-04-16T10:19:25;99362.03;;;25.40;41.40
60019;BME280;45870;42.528;26.740;2023-04-16T10:21:52;99375.34;;;23.70;42.98
60019;BME280;45870;42.528;26.740;2023-04-16T10:24:19;99361.59;;;23.45;44.61
60019;BME280;45870;42.528;26.740;2023-04-16T10:26:46;99327.56;;;24.33;44.09
60019;BME280;45870;42.528;26.740;2023-04-16T10:29:14;99381.47;;;25.64;40.14
60019;BME280;45870;42.528;26.740;2023-04-16T10:31:40;99380.03;;;23.70;46.18
60019;BME280;45870;42.528;26.740;2023-04-16T10:34:08;99372.22;;;21.51;47.08
60019;BME280;45870;42.528;26.740;2023-04-16T10:36:37;99365.25;;;21.98;47.65
60019;BME280;45870;42.528;26.740;2023-04-16T10:39:09;99377.66;;;21.20;50.64
60019;BME280;45870;42.528;26.740;2023-04-16T10:41:36;99372.75;;;22.71;47.67
60019;BME280;45870;42.528;26.740;2023-04-16T10:44:05;99364.66;;;22.74;47.12
60019;BME280;45870;42.528;26.740;2023-04-16T10:46:42;99367.47;;;22.35;47.56
60019;BME280;45870;42.528;26.740;2023-04-16T10:49:25;99366.03;;;22.46;48.04
60019;BME280;45870;42.528;26.740;2023-04-16T10:54:23;99359.97;;;22.18;49.26
60019;BME280;45870;42.528;26.740;2023-04-16T10:56:50;99349.53;;;22.46;49.12
60019;BME280;45870;42.528;26.740;2023-04-16T10:59:20;99328.63;;;21.49;51.13
60019;BME280;45870;42.528;26.740;2023-04-16T11:01:52;99284.00;;;20.55;52.23
60019;BME280;45870;42.528;26.740;2023-04-16T11:10:00;99324.31;;;22.44;50.87
60019;BME280;45870;42.528;26.740;2023-04-16T11:14:58;99320.75;;;24.02;47.87
60019;BME280;45870;42.528;26.740;2023-04-16T11:20:02;99312.88;;;23.02;48.67
60019;BME280;45870;42.528;26.740;2023-04-16T11:22:29;99320.31;;;23.82;45.87
60019;BME280;45870;42.528;26.740;2023-04-16T11:24:55;99321.41;;;26.21;42.08
60019;BME280;45870;42.528;26.740;2023-04-16T11:27:23;99311.03;;;25.16;44.03
60019;BME280;45870;42.528;26.740;2023-04-16T11:32:32;99309.41;;;26.05;41.96
60019;BME280;45870;42.528;26.740;2023-04-16T11:35:03;99304.34;;;28.29;36.46
60019;BME280;45870;42.528;26.740;2023-04-16T11:37:34;99309.72;;;25.34;42.14
60019;BME280;45870;42.528;26.740;2023-04-16T11:40:01;99302.97;;;26.13;40.63
60019;BME280;45870;42.528;26.740;2023-04-16T11:42:29;99301.78;;;25.78;40.97
60019;BME280;45870;42.528;26.740;2023-04-16T11:44:56;99286.53;;;27.09;39.59
60019;BME280;45870;42.528;26.740;2023-04-16T11:47:23;99275.75;;;27.35;39.02
60019;BME280;45870;42.528;26.740;2023-04-16T11:49:49;99283.22;;;25.21;38.87
60019;BME280;45870;42.528;26.740;2023-04-16T11:52:29;99264.75;;;26.55;38.49
60019;BME280;45870;42.528;26.740;2023-04-16T11:54:56;99280.41;;;25.09;40.18
60019;BME280;45870;42.528;26.740;2023-04-16T11:57:27;99281.72;;;25.69;37.56
60019;BME280;45870;42.528;26.740;2023-04-16T11:59:54;99277.00;;;27.81;35.03
60019;BME280;45870;42.528;26.740;2023-04-16T12:02:55;99269.50;;;27.22;33.03
60019;BME280;45870;42.528;26.740;2023-04-16T12:05:27;99266.63;;;27.35;34.30
60019;BME280;45870;42.528;26.740;2023-04-16T12:07:53;99271.47;;;28.66;32.62
60019;BME280;45870;42.528;26.740;2023-04-16T12:10:20;99273.75;;;27.95;31.37
60019;BME280;45870;42.528;26.740;2023-04-16T12:12:45;99257.78;;;28.58;32.84
60019;BME280;45870;42.528;26.740;2023-04-16T12:15:11;99272.78;;;28.03;33.29
60019;BME280;45870;42.528;26.740;2023-04-16T12:17:37;99270.22;;;24.89;36.96
60019;BME280;45870;42.528;26.740;2023-04-16T12:20:14;99269.22;;;25.06;37.12
60019;BME280;45870;42.528;26.740;2023-04-16T12:22:44;99256.31;;;26.24;37.74
60019;BME280;45870;42.528;26.740;2023-04-16T12:25:15;99246.34;;;27.30;34.33
60019;BME280;45870;42.528;26.740;2023-04-16T12:27:47;99250.75;;;25.63;36.24
60019;BME280;45870;42.528;26.740;2023-04-16T12:30:18;99235.28;;;23.09;39.75
60019;BME280;45870;42.528;26.740;2023-04-16T12:32:48;99233.41;;;26.79;34.89
60019;BME280;45870;42.528;26.740;2023-04-16T12:35:29;99240.50;;;27.20;32.88
60019;BME280;45870;42.528;26.740;2023-04-16T12:37:56;99235.75;;;26.13;35.84
60019;BME280;45870;42.528;26.740;2023-04-16T12:40:21;99235.06;;;27.23;33.51
60019;BME280;45870;42.528;26.740;2023-04-16T12:42:47;99232.44;;;25.83;33.50
60019;BME280;45870;42.528;26.740;2023-04-16T12:45:13;99232.63;;;23.29;40.21
60019;BME280;45870;42.528;26.740;2023-04-16T12:47:38;99236.41;;;25.37;37.25
60019;BME280;45870;42.528;26.740;2023-04-16T12:50:04;99232.19;;;25.76;36.16
60019;BME280;45870;42.528;26.740;2023-04-16T12:52:30;99214.16;;;27.26;34.10
60019;BME280;45870;42.528;26.740;2023-04-16T12:54:56;99231.47;;;27.82;33.35
60019;BME280;45870;42.528;26.740;2023-04-16T12:57:21;99226.13;;;28.43;32.11
60019;BME280;45870;42.528;26.740;2023-04-16T12:59:54;99226.16;;;28.08;33.27
60019;BME280;45870;42.528;26.740;2023-04-16T13:02:20;99231.84;;;27.21;33.46
60019;BME280;45870;42.528;26.740;2023-04-16T13:04:46;99238.59;;;28.49;31.91
60019;BME280;45870;42.528;26.740;2023-04-16T13:07:11;99229.22;;;29.15;32.53
60019;BME280;45870;42.528;26.740;2023-04-16T13:09:37;99203.13;;;29.19;31.14